createdAt,value
2018-07-21T00:02:27.021Z,6.08
2018-07-21T00:07:31.918Z,6.58
2018-07-21T00:12:36.114Z,5.90
2018-07-21T00:17:39.712Z,6.15
2018-07-21T00:22:43.566Z,6.03
2018-07-21T00:27:47.866Z,5.92
2018-07-21T00:32:51.478Z,6.17
2018-07-21T00:37:55.995Z,5.72
2018-07-21T00:43:00.242Z,6.58
2018-07-21T00:48:04.966Z,5.92
2018-07-21T00:53:08.518Z,6.20
2018-07-21T00:58:12.163Z,6.08
2018-07-21T01:03:16.422Z,5.83
2018-07-21T01:08:20.273Z,5.87
2018-07-21T01:13:25.190Z,5.78
2018-07-21T01:18:30.348Z,6.00
2018-07-21T01:23:34.350Z,6.65
2018-07-21T01:28:39.429Z,6.42
2018-07-21T01:33:43.437Z,6.80
2018-07-21T01:38:47.923Z,6.72
2018-07-21T01:43:51.532Z,6.90
2018-07-21T01:48:56.087Z,6.70
2018-07-21T01:54:00.007Z,6.37
2018-07-21T01:59:04.066Z,6.90
2018-07-21T02:04:08.058Z,6.17
2018-07-21T02:09:12.794Z,7.53
2018-07-21T02:14:17.512Z,7.15
2018-07-21T02:19:21.398Z,6.33
2018-07-21T02:24:24.996Z,6.60
2018-07-21T02:29:29.652Z,6.92
2018-07-21T02:34:34.127Z,7.62
2018-07-21T02:39:38.969Z,6.75
2018-07-21T02:44:42.702Z,7.05
2018-07-21T02:49:46.667Z,6.85
2018-07-21T02:54:51.206Z,7.28
2018-07-21T02:59:54.772Z,6.97
2018-07-21T03:04:58.485Z,7.47
2018-07-21T03:10:04.501Z,7.50
2018-07-21T03:15:08.370Z,8.00
2018-07-21T03:20:12.408Z,7.42
2018-07-21T03:25:16.602Z,7.93
2018-07-21T03:30:20.561Z,8.40
2018-07-21T03:35:24.182Z,8.53
2018-07-21T03:40:28.086Z,8.35
2018-07-21T03:45:31.643Z,8.48
2018-07-21T03:50:35.442Z,8.23
2018-07-21T03:55:39.427Z,8.93
2018-07-21T04:00:43.251Z,8.48
2018-07-21T04:05:46.960Z,8.25
2018-07-21T04:10:51.146Z,8.60
2018-07-21T04:15:55.090Z,8.08
2018-07-21T04:20:58.844Z,8.15
2018-07-21T04:26:02.385Z,8.25
2018-07-21T04:31:06.147Z,8.40
2018-07-21T04:36:09.695Z,8.43
2018-07-21T04:41:13.285Z,7.87
2018-07-21T04:46:17.385Z,8.20
2018-07-21T04:51:21.354Z,7.72
2018-07-21T04:56:24.902Z,8.43
2018-07-21T05:01:29.372Z,8.13
2018-07-21T05:06:33.975Z,7.62
2018-07-21T05:11:38.022Z,7.50
2018-07-21T05:16:41.646Z,7.78
2018-07-21T05:21:45.743Z,7.95
2018-07-21T05:26:49.402Z,7.55
2018-07-21T05:31:52.967Z,7.45
2018-07-21T05:37:23.148Z,7.05
2018-07-21T05:42:27.188Z,7.63
2018-07-21T05:47:31.000Z,7.28
2018-07-21T05:52:35.302Z,6.90
2018-07-21T05:57:39.125Z,7.70
2018-07-21T06:02:43.366Z,6.87
2018-07-21T06:07:47.065Z,7.37
2018-07-21T06:12:51.187Z,7.03
2018-07-21T06:17:54.710Z,7.95
2018-07-21T06:22:58.649Z,7.80
2018-07-21T06:28:02.824Z,7.37
2018-07-21T06:33:06.482Z,8.28
2018-07-21T06:38:10.053Z,7.70
2018-07-21T06:43:14.339Z,6.80
2018-07-21T06:48:17.850Z,6.67
2018-07-21T06:53:21.363Z,7.40
2018-07-21T06:58:24.996Z,6.47
2018-07-21T07:03:28.501Z,5.97
2018-07-21T07:08:32.141Z,6.45
2018-07-21T07:13:35.737Z,7.45
2018-07-21T07:18:39.400Z,6.50
2018-07-21T07:23:43.068Z,6.37
2018-07-21T07:28:46.735Z,6.08
2018-07-21T07:33:50.733Z,6.17
2018-07-21T07:38:54.822Z,6.40
2018-07-21T07:43:58.502Z,6.40
2018-07-21T07:49:02.147Z,6.22
2018-07-21T07:54:05.687Z,6.22
2018-07-21T07:59:09.162Z,6.42
2018-07-21T08:04:12.650Z,5.75
2018-07-21T08:09:16.199Z,6.45
2018-07-21T08:14:20.506Z,5.90
2018-07-21T08:19:24.334Z,5.45
2018-07-21T08:24:28.852Z,6.35
2018-07-21T08:29:32.977Z,6.30
2018-07-21T08:34:36.963Z,5.60
2018-07-21T08:39:41.025Z,6.80
2018-07-21T08:44:45.004Z,5.90
2018-07-21T08:49:48.926Z,6.17
2018-07-21T08:54:54.677Z,6.15
2018-07-21T09:00:13.550Z,5.30
2018-07-21T09:05:19.581Z,5.20
2018-07-21T09:10:24.762Z,6.00
2018-07-21T09:15:28.890Z,5.78
2018-07-21T09:20:32.730Z,5.40
2018-07-21T09:25:36.809Z,5.85
2018-07-21T09:30:40.772Z,5.78
2018-07-21T09:35:44.734Z,5.35
2018-07-21T09:40:48.598Z,5.78
2018-07-21T09:45:52.691Z,5.62
2018-07-21T09:50:56.568Z,5.67
2018-07-21T09:56:00.671Z,5.70
2018-07-21T10:01:05.228Z,5.70
2018-07-21T10:06:09.022Z,5.30
2018-07-21T10:11:12.846Z,4.77
2018-07-21T10:16:16.654Z,5.28
2018-07-21T10:21:20.510Z,5.45
2018-07-21T10:26:29.621Z,5.42
2018-07-21T10:31:33.417Z,5.20
2018-07-21T10:36:40.118Z,5.40
2018-07-21T10:41:44.611Z,5.55
2018-07-21T10:46:49.819Z,4.83
2018-07-21T10:51:53.876Z,5.20
2018-07-21T10:57:00.122Z,5.37
2018-07-21T11:02:04.226Z,5.30
2018-07-21T11:07:08.058Z,4.75
2018-07-21T11:12:12.045Z,4.97
2018-07-21T11:17:16.905Z,5.22
2018-07-21T11:22:24.016Z,5.22
2018-07-21T11:27:28.129Z,5.33
2018-07-21T11:32:32.252Z,5.42
2018-07-21T11:37:39.296Z,5.50
2018-07-21T11:42:43.541Z,4.90
2018-07-21T11:47:51.316Z,5.00
2018-07-21T11:52:57.278Z,5.25
2018-07-21T11:58:02.723Z,5.15
2018-07-21T12:03:08.716Z,4.90
2018-07-21T12:13:28.256Z,4.90
2018-07-21T12:18:33.859Z,4.83
2018-07-21T12:23:40.327Z,4.83
2018-07-21T12:28:50.554Z,4.85
2018-07-21T12:33:55.684Z,5.22
2018-07-21T12:39:00.362Z,4.87
2018-07-21T12:44:04.846Z,5.05
2018-07-21T12:49:09.300Z,5.03
2018-07-21T12:54:13.472Z,5.08
2018-07-21T12:59:20.147Z,4.95
2018-07-21T13:04:27.600Z,5.58
2018-07-21T13:09:31.750Z,4.42
2018-07-21T13:14:36.661Z,5.22
2018-07-21T13:19:40.566Z,4.47
2018-07-21T13:24:44.602Z,4.53
2018-07-21T13:29:48.570Z,5.00
2018-07-21T13:34:52.735Z,4.80
2018-07-21T13:39:57.571Z,4.90
2018-07-21T13:45:08.324Z,4.60
2018-07-21T13:50:13.340Z,4.95
2018-07-21T13:55:17.512Z,4.93
2018-07-21T14:00:21.503Z,4.90
2018-07-21T14:05:25.368Z,4.50
2018-07-21T14:10:30.719Z,4.92
2018-07-21T14:15:34.753Z,5.40
2018-07-21T14:20:38.632Z,4.67
2018-07-21T14:25:43.016Z,4.95
2018-07-21T14:30:50.531Z,4.83
2018-07-21T14:36:00.722Z,4.72
2018-07-21T14:41:04.493Z,4.58
2018-07-21T14:46:08.944Z,3.90
2018-07-21T14:51:12.998Z,4.35
2018-07-21T14:56:18.315Z,4.78
2018-07-21T15:01:23.433Z,3.98
2018-07-21T15:06:27.941Z,4.10
2018-07-21T15:11:31.466Z,4.08
2018-07-21T15:16:35.119Z,4.80
2018-07-21T15:21:38.793Z,5.00
2018-07-21T15:26:43.012Z,4.47
2018-07-21T15:31:48.903Z,4.40
2018-07-21T15:36:52.603Z,4.60
2018-07-21T15:41:56.651Z,4.20
2018-07-21T15:47:00.295Z,3.92
2018-07-21T15:52:03.861Z,4.50
2018-07-21T15:57:08.407Z,4.15
2018-07-21T16:02:13.332Z,4.10
2018-07-21T16:07:17.210Z,3.83
2018-07-21T16:12:21.205Z,4.12
2018-07-21T16:17:24.992Z,3.90
2018-07-21T16:22:28.594Z,4.10
2018-07-21T16:27:32.160Z,4.00
2018-07-21T16:32:35.810Z,4.17
2018-07-21T16:37:39.437Z,3.90
2018-07-21T16:42:43.627Z,4.55
2018-07-21T16:47:47.526Z,4.08
2018-07-21T16:52:51.939Z,4.40
2018-07-21T16:57:55.694Z,3.98
2018-07-21T17:02:59.395Z,4.75
2018-07-21T17:08:03.218Z,4.20
2018-07-21T17:13:06.766Z,3.90
2018-07-21T17:18:10.391Z,4.35
2018-07-21T17:23:14.680Z,3.85
2018-07-21T17:28:18.230Z,4.33
2018-07-21T17:33:22.250Z,4.42
2018-07-21T17:38:26.335Z,4.60
2018-07-21T17:43:30.034Z,3.80
2018-07-21T17:48:33.699Z,4.62
2018-07-21T17:53:37.309Z,4.28
2018-07-21T17:58:40.958Z,4.42
2018-07-21T18:03:44.666Z,4.05
2018-07-21T18:08:48.626Z,4.20
2018-07-21T18:13:52.264Z,4.37
2018-07-21T18:18:55.859Z,5.17
2018-07-21T18:23:59.405Z,4.92
2018-07-21T18:29:03.025Z,4.85
2018-07-21T18:34:07.221Z,5.37
2018-07-21T18:39:12.044Z,4.53
2018-07-21T18:44:15.746Z,4.58
2018-07-21T18:49:19.824Z,4.47
2018-07-21T18:54:23.414Z,4.58
2018-07-21T18:59:27.042Z,4.72
2018-07-21T19:04:30.664Z,4.87
2018-07-21T19:09:34.532Z,4.58
2018-07-21T19:14:38.250Z,4.75
2018-07-21T19:19:47.178Z,5.55
2018-07-21T19:24:50.751Z,5.20
2018-07-21T19:29:54.323Z,5.62
2018-07-21T19:34:58.143Z,5.58
2018-07-21T19:40:08.539Z,5.28
2018-07-21T19:45:12.618Z,5.60
2018-07-21T19:50:16.203Z,5.97
2018-07-21T19:55:19.878Z,6.20
2018-07-21T20:00:23.987Z,6.25
2018-07-21T20:05:27.875Z,6.10
2018-07-21T20:10:31.390Z,5.78
2018-07-21T20:15:35.463Z,6.40
2018-07-21T20:20:39.588Z,5.78
2018-07-21T20:25:43.421Z,6.42
2018-07-21T20:30:47.104Z,6.50
2018-07-21T20:35:50.698Z,6.72
2018-07-21T20:40:54.326Z,6.28
2018-07-21T20:45:57.912Z,6.92
2018-07-21T20:51:05.999Z,6.92
2018-07-21T20:56:10.079Z,6.97
2018-07-21T21:01:13.643Z,6.53
2018-07-21T21:06:17.281Z,7.42
2018-07-21T21:11:21.051Z,7.10
2018-07-21T21:16:24.963Z,6.60
2018-07-21T21:21:29.134Z,6.75
2018-07-21T21:26:33.150Z,6.15
2018-07-21T21:31:36.736Z,6.90
2018-07-21T21:36:40.858Z,7.00
2018-07-21T21:41:44.738Z,7.20
2018-07-21T21:46:48.878Z,6.30
2018-07-21T21:51:52.395Z,7.33
2018-07-21T21:56:56.206Z,6.90
2018-07-21T22:01:59.691Z,7.00
2018-07-21T22:07:03.358Z,6.75
2018-07-21T22:12:06.941Z,7.05
2018-07-21T22:17:10.499Z,6.75
2018-07-21T22:22:14.148Z,7.78
2018-07-21T22:27:17.925Z,8.33
2018-07-21T22:32:21.403Z,8.25
2018-07-21T22:37:24.962Z,7.72
2018-07-21T22:42:28.473Z,7.97
2018-07-21T22:47:31.954Z,7.87
2018-07-21T22:52:35.516Z,7.70
2018-07-21T22:57:39.117Z,7.37
2018-07-21T23:02:46.902Z,7.40
2018-07-21T23:07:50.385Z,7.92
2018-07-21T23:12:54.199Z,7.28
2018-07-21T23:17:57.833Z,7.43
2018-07-21T23:23:01.369Z,7.67
2018-07-21T23:28:04.961Z,7.35
2018-07-21T23:33:08.473Z,7.35
2018-07-21T23:38:12.057Z,9.03
2018-07-21T23:43:15.642Z,8.73
2018-07-21T23:48:20.239Z,7.87
2018-07-21T23:53:23.823Z,8.25
2018-07-21T23:58:27.462Z,7.95
